createdAt,value
2017-08-27T00:01:43.491Z,16.90
2017-08-27T00:04:11.884Z,16.90
2017-08-27T00:06:40.263Z,16.90
2017-08-27T00:09:08.665Z,16.90
2017-08-27T00:11:37.050Z,16.80
2017-08-27T00:14:05.426Z,16.80
2017-08-27T00:16:33.821Z,16.70
2017-08-27T00:19:02.201Z,16.70
2017-08-27T00:21:30.603Z,16.70
2017-08-27T00:23:59.660Z,16.70
2017-08-27T00:26:28.041Z,16.60
2017-08-27T00:28:56.433Z,16.60
2017-08-27T00:31:24.815Z,16.60
2017-08-27T00:33:53.210Z,16.60
2017-08-27T00:36:22.377Z,16.60
2017-08-27T00:38:50.753Z,16.60
2017-08-27T00:41:19.172Z,16.60
2017-08-27T00:43:47.557Z,16.60
2017-08-27T00:46:15.956Z,16.60
2017-08-27T00:48:44.333Z,16.60
2017-08-27T00:51:12.703Z,16.50
2017-08-27T00:53:40.747Z,16.50
2017-08-27T00:56:09.136Z,16.50
2017-08-27T00:58:37.542Z,16.50
2017-08-27T01:01:05.913Z,16.50
2017-08-27T01:03:34.293Z,16.50
2017-08-27T01:06:02.339Z,16.50
2017-08-27T01:08:30.631Z,16.50
2017-08-27T01:10:58.682Z,16.50
2017-08-27T01:13:27.060Z,16.40
2017-08-27T01:15:55.433Z,16.40
2017-08-27T01:18:23.834Z,16.30
2017-08-27T01:20:51.862Z,16.30
2017-08-27T01:23:20.283Z,16.30
2017-08-27T01:25:48.318Z,16.20
2017-08-27T01:28:16.703Z,16.20
2017-08-27T01:30:45.098Z,16.20
2017-08-27T01:33:13.487Z,16.20
2017-08-27T01:35:41.903Z,16.20
2017-08-27T01:38:10.292Z,16.20
2017-08-27T01:40:38.667Z,16.10
2017-08-27T01:43:07.068Z,16.10
2017-08-27T01:45:35.456Z,16.10
2017-08-27T01:48:04.633Z,16.20
2017-08-27T01:50:33.013Z,16.10
2017-08-27T01:53:01.381Z,16.10
2017-08-27T01:55:29.780Z,16.00
2017-08-27T01:57:58.162Z,16.00
2017-08-27T02:00:26.561Z,16.00
2017-08-27T02:02:54.943Z,15.90
2017-08-27T02:05:23.331Z,15.90
2017-08-27T02:07:51.724Z,15.80
2017-08-27T02:10:20.114Z,15.70
2017-08-27T02:12:48.515Z,15.50
2017-08-27T02:15:16.894Z,15.70
2017-08-27T02:17:45.266Z,15.90
2017-08-27T02:20:14.422Z,16.00
2017-08-27T02:22:42.805Z,16.00
2017-08-27T02:25:11.209Z,15.90
2017-08-27T02:27:39.588Z,15.80
2017-08-27T02:30:07.972Z,15.80
2017-08-27T02:32:39.440Z,15.80
2017-08-27T02:35:07.818Z,15.60
2017-08-27T02:37:36.226Z,15.70
2017-08-27T02:40:04.614Z,15.80
2017-08-27T02:42:33.023Z,15.80
2017-08-27T02:45:01.418Z,15.80
2017-08-27T02:47:29.824Z,15.70
2017-08-27T02:49:58.994Z,15.70
2017-08-27T02:52:27.377Z,15.70
2017-08-27T02:54:55.766Z,15.80
2017-08-27T02:57:24.156Z,15.60
2017-08-27T02:59:52.558Z,15.70
2017-08-27T03:02:20.985Z,15.70
2017-08-27T03:04:49.361Z,15.70
2017-08-27T03:07:17.741Z,15.60
2017-08-27T03:09:46.133Z,15.40
2017-08-27T03:12:14.543Z,15.10
2017-08-27T03:14:42.943Z,15.10
2017-08-27T03:17:11.325Z,15.30
2017-08-27T03:19:39.710Z,15.30
2017-08-27T03:22:08.122Z,15.40
2017-08-27T03:24:36.489Z,15.40
2017-08-27T03:27:04.909Z,15.30
2017-08-27T03:29:33.310Z,15.20
2017-08-27T03:32:01.694Z,15.10
2017-08-27T03:34:30.133Z,15.20
2017-08-27T03:36:58.534Z,15.20
2017-08-27T03:39:26.921Z,15.20
2017-08-27T03:41:54.992Z,15.10
2017-08-27T03:44:23.369Z,15.10
2017-08-27T03:46:51.758Z,14.90
2017-08-27T03:49:20.146Z,14.90
2017-08-27T03:51:48.545Z,14.90
2017-08-27T03:54:16.927Z,14.90
2017-08-27T03:56:45.305Z,14.90
2017-08-27T03:59:13.700Z,14.90
2017-08-27T04:01:42.083Z,15.00
2017-08-27T04:04:10.485Z,15.00
2017-08-27T04:06:38.864Z,15.00
2017-08-27T04:09:07.249Z,14.90
2017-08-27T04:11:35.651Z,14.80
2017-08-27T04:14:04.033Z,14.90
2017-08-27T04:16:32.433Z,15.00
2017-08-27T04:19:00.818Z,15.00
2017-08-27T04:21:29.209Z,15.00
2017-08-27T04:23:57.607Z,15.00
2017-08-27T04:26:25.986Z,14.80
2017-08-27T04:28:54.390Z,14.70
2017-08-27T04:31:22.773Z,14.60
2017-08-27T04:33:51.158Z,14.70
2017-08-27T04:36:19.581Z,14.80
2017-08-27T04:38:47.954Z,14.90
2017-08-27T04:41:16.361Z,14.90
2017-08-27T04:43:44.765Z,14.90
2017-08-27T04:46:13.167Z,14.90
2017-08-27T04:48:42.342Z,14.90
2017-08-27T04:51:10.733Z,14.90
2017-08-27T04:53:39.154Z,14.90
2017-08-27T04:56:07.529Z,14.90
2017-08-27T04:58:36.731Z,14.90
2017-08-27T05:01:05.133Z,14.80
2017-08-27T05:03:33.514Z,14.90
2017-08-27T05:06:01.911Z,14.90
2017-08-27T05:08:30.291Z,14.90
2017-08-27T05:10:58.710Z,14.90
2017-08-27T05:13:27.177Z,14.90
2017-08-27T05:15:55.567Z,14.90
2017-08-27T05:18:23.968Z,14.90
2017-08-27T05:20:52.339Z,14.80
2017-08-27T05:23:20.821Z,14.80
2017-08-27T05:25:49.215Z,14.70
2017-08-27T05:28:17.614Z,14.60
2017-08-27T05:30:46.011Z,14.30
2017-08-27T05:33:14.389Z,14.40
2017-08-27T05:35:42.771Z,14.60
2017-08-27T05:38:11.195Z,14.80
2017-08-27T05:40:39.613Z,15.00
2017-08-27T05:43:08.064Z,15.10
2017-08-27T05:45:36.453Z,15.10
2017-08-27T05:48:04.857Z,15.10
2017-08-27T05:50:33.258Z,15.10
2017-08-27T05:53:02.447Z,15.40
2017-08-27T05:55:30.857Z,15.30
2017-08-27T05:57:59.236Z,15.40
2017-08-27T06:00:27.717Z,15.40
2017-08-27T06:02:56.153Z,15.30
2017-08-27T06:05:24.543Z,15.20
2017-08-27T06:07:52.966Z,15.30
2017-08-27T06:10:21.161Z,15.50
2017-08-27T06:12:49.553Z,15.70
2017-08-27T06:15:18.008Z,15.90
2017-08-27T06:17:46.405Z,16.10
2017-08-27T06:20:14.812Z,16.30
2017-08-27T06:22:43.209Z,16.40
2017-08-27T06:25:11.703Z,16.60
2017-08-27T06:27:40.085Z,16.80
2017-08-27T06:30:08.497Z,16.90
2017-08-27T06:32:36.882Z,17.10
2017-08-27T06:35:05.275Z,17.20
2017-08-27T06:37:33.676Z,17.30
2017-08-27T06:40:02.070Z,17.30
2017-08-27T06:42:30.461Z,17.40
2017-08-27T06:44:58.854Z,17.50
2017-08-27T06:47:27.264Z,17.50
2017-08-27T06:49:55.640Z,17.60
2017-08-27T06:52:24.017Z,17.60
2017-08-27T06:54:52.405Z,17.80
2017-08-27T06:57:20.799Z,18.10
2017-08-27T06:59:49.205Z,18.20
2017-08-27T07:02:17.582Z,18.40
2017-08-27T07:04:45.966Z,18.40
2017-08-27T07:07:14.423Z,18.40
2017-08-27T07:09:42.819Z,18.40
2017-08-27T07:12:11.291Z,18.50
2017-08-27T07:14:39.700Z,18.60
2017-08-27T07:17:08.087Z,18.60
2017-08-27T07:19:36.482Z,18.70
2017-08-27T07:22:04.862Z,18.90
2017-08-27T07:24:33.269Z,19.10
2017-08-27T07:27:01.766Z,18.80
2017-08-27T07:29:30.145Z,18.20
2017-08-27T07:31:58.551Z,18.10
2017-08-27T07:34:27.067Z,18.30
2017-08-27T07:36:55.142Z,18.90
2017-08-27T07:39:23.538Z,19.10
2017-08-27T07:41:51.925Z,19.30
2017-08-27T07:44:20.342Z,19.60
2017-08-27T07:46:48.726Z,19.80
2017-08-27T07:49:17.153Z,20.00
2017-08-27T07:51:45.550Z,19.90
2017-08-27T07:54:13.766Z,19.30
2017-08-27T07:56:42.145Z,18.80
2017-08-27T07:59:10.581Z,18.70
2017-08-27T08:01:39.211Z,18.20
2017-08-27T08:04:07.612Z,18.00
2017-08-27T08:06:35.809Z,18.20
2017-08-27T08:09:03.845Z,18.50
2017-08-27T08:11:32.265Z,18.70
2017-08-27T08:14:00.646Z,19.00
2017-08-27T08:16:29.068Z,19.40
2017-08-27T08:18:57.496Z,19.60
2017-08-27T08:21:25.966Z,19.40
2017-08-27T08:23:54.440Z,19.20
2017-08-27T08:26:22.818Z,19.30
2017-08-27T08:28:51.209Z,18.80
2017-08-27T08:31:19.618Z,18.70
2017-08-27T08:33:48.011Z,18.70
2017-08-27T08:36:16.397Z,18.80
2017-08-27T08:38:44.784Z,19.00
2017-08-27T08:41:13.940Z,20.00
2017-08-27T08:43:42.006Z,19.90
2017-08-27T08:46:10.384Z,20.10
2017-08-27T08:48:38.775Z,19.30
2017-08-27T08:51:07.337Z,19.60
2017-08-27T08:53:35.749Z,19.60
2017-08-27T08:56:04.146Z,20.00
2017-08-27T08:58:32.549Z,20.10
2017-08-27T09:01:00.942Z,20.10
2017-08-27T09:03:29.344Z,19.70
2017-08-27T09:05:57.730Z,19.20
2017-08-27T09:08:26.105Z,19.00
2017-08-27T09:10:54.509Z,18.90
2017-08-27T09:13:22.904Z,19.10
2017-08-27T09:15:51.307Z,19.50
2017-08-27T09:18:19.705Z,19.90
2017-08-27T09:20:48.107Z,20.10
2017-08-27T09:23:16.491Z,19.90
2017-08-27T09:25:44.915Z,20.10
2017-08-27T09:28:13.292Z,20.30
2017-08-27T09:30:41.691Z,19.90
2017-08-27T09:33:10.091Z,20.20
2017-08-27T09:35:38.540Z,20.20
2017-08-27T09:38:06.931Z,20.40
2017-08-27T09:40:35.398Z,20.20
2017-08-27T09:43:06.967Z,20.40
2017-08-27T09:45:35.224Z,20.50
2017-08-27T09:48:03.659Z,20.60
2017-08-27T09:50:32.825Z,20.80
2017-08-27T09:53:01.211Z,20.80
2017-08-27T09:55:29.608Z,20.30
2017-08-27T09:57:58.002Z,19.90
2017-08-27T10:00:26.430Z,19.70
2017-08-27T10:02:54.818Z,20.00
2017-08-27T10:05:23.220Z,20.60
2017-08-27T10:07:51.620Z,20.70
2017-08-27T10:10:19.826Z,21.00
2017-08-27T10:12:48.976Z,21.50
2017-08-27T10:15:17.357Z,21.80
2017-08-27T10:17:45.751Z,21.20
2017-08-27T10:20:14.907Z,21.20
2017-08-27T10:22:43.281Z,21.30
2017-08-27T10:25:11.686Z,21.60
2017-08-27T10:27:40.065Z,21.00
2017-08-27T10:30:08.454Z,20.80
2017-08-27T10:32:36.849Z,20.50
2017-08-27T10:35:05.231Z,20.50
2017-08-27T10:37:33.633Z,20.80
2017-08-27T10:40:02.013Z,21.70
2017-08-27T10:42:30.473Z,21.50
2017-08-27T10:44:58.867Z,21.30
2017-08-27T10:47:27.272Z,21.60
2017-08-27T10:49:55.711Z,21.90
2017-08-27T10:52:24.110Z,22.20
2017-08-27T10:54:52.497Z,22.10
2017-08-27T10:57:20.897Z,22.10
2017-08-27T10:59:49.265Z,22.60
2017-08-27T11:02:17.698Z,23.00
2017-08-27T11:04:46.095Z,22.50
2017-08-27T11:07:14.487Z,23.20
2017-08-27T11:09:42.870Z,23.60
2017-08-27T11:12:11.254Z,22.90
2017-08-27T11:14:39.654Z,21.60
2017-08-27T11:17:08.029Z,22.10
2017-08-27T11:19:36.434Z,22.90
2017-08-27T11:22:04.842Z,23.80
2017-08-27T11:24:33.231Z,23.50
2017-08-27T11:27:01.630Z,22.60
2017-08-27T11:29:29.826Z,22.70
2017-08-27T11:31:58.977Z,23.10
2017-08-27T11:34:27.369Z,23.10
2017-08-27T11:36:55.760Z,22.60
2017-08-27T11:39:24.167Z,22.40
2017-08-27T11:41:52.540Z,22.70
2017-08-27T11:44:20.927Z,23.60
2017-08-27T11:46:49.324Z,23.80
2017-08-27T11:49:17.697Z,24.10
2017-08-27T11:51:46.099Z,24.10
2017-08-27T11:54:14.479Z,23.80
2017-08-27T11:56:42.856Z,24.50
2017-08-27T11:59:11.257Z,23.60
2017-08-27T12:01:39.639Z,22.90
2017-08-27T12:04:08.057Z,23.10
2017-08-27T12:06:36.437Z,23.50
2017-08-27T12:09:03.938Z,24.00
2017-08-27T12:11:32.344Z,23.10
2017-08-27T12:14:01.508Z,23.30
2017-08-27T12:16:29.919Z,23.30
2017-08-27T12:18:58.299Z,23.30
2017-08-27T12:21:27.450Z,24.10
2017-08-27T12:23:55.857Z,24.10
2017-08-27T12:26:24.258Z,24.90
2017-08-27T12:28:52.669Z,24.10
2017-08-27T12:31:21.052Z,24.50
2017-08-27T12:33:49.437Z,25.40
2017-08-27T12:36:17.488Z,25.50
2017-08-27T12:38:45.865Z,24.30
2017-08-27T12:41:14.292Z,23.70
2017-08-27T12:43:42.703Z,24.00
2017-08-27T12:46:11.855Z,24.30
2017-08-27T12:48:40.244Z,24.30
2017-08-27T12:51:08.627Z,23.60
2017-08-27T12:53:37.030Z,23.40
2017-08-27T12:56:06.186Z,23.50
2017-08-27T12:58:34.567Z,23.50
2017-08-27T13:01:02.968Z,24.00
2017-08-27T13:03:32.122Z,23.40
2017-08-27T13:06:00.539Z,23.40
2017-08-27T13:08:28.935Z,23.40
2017-08-27T13:10:57.314Z,23.20
2017-08-27T13:13:25.713Z,23.30
2017-08-27T13:15:54.092Z,23.50
2017-08-27T13:18:22.498Z,23.90
2017-08-27T13:20:50.873Z,23.80
2017-08-27T13:23:19.267Z,23.70
2017-08-27T13:25:47.653Z,24.00
2017-08-27T13:28:16.031Z,24.50
2017-08-27T13:30:44.249Z,23.90
2017-08-27T13:33:12.657Z,24.00
2017-08-27T13:35:41.224Z,23.80
2017-08-27T13:38:09.618Z,24.40
2017-08-27T13:40:37.994Z,24.80
2017-08-27T13:43:06.405Z,25.30
2017-08-27T13:45:34.789Z,24.70
2017-08-27T13:48:03.194Z,24.30
2017-08-27T13:50:31.598Z,23.90
2017-08-27T13:52:59.994Z,23.90
2017-08-27T13:55:30.162Z,23.70
2017-08-27T13:57:58.541Z,23.70
2017-08-27T14:00:27.687Z,23.90
2017-08-27T14:02:55.902Z,23.80
2017-08-27T14:05:25.081Z,24.20
2017-08-27T14:07:53.818Z,24.20
2017-08-27T14:10:22.196Z,24.70
2017-08-27T14:12:50.674Z,25.10
2017-08-27T14:15:19.067Z,25.20
2017-08-27T14:17:47.450Z,25.50
2017-08-27T14:20:15.859Z,24.30
2017-08-27T14:22:44.049Z,23.30
2017-08-27T14:25:12.247Z,23.40
2017-08-27T14:27:40.766Z,23.40
2017-08-27T14:30:09.151Z,23.20
2017-08-27T14:32:37.754Z,23.30
2017-08-27T14:35:06.156Z,23.60
2017-08-27T14:37:34.553Z,24.20
2017-08-27T14:40:02.971Z,24.60
2017-08-27T14:42:31.355Z,24.90
2017-08-27T14:44:59.749Z,25.20
2017-08-27T14:47:28.145Z,24.20
2017-08-27T14:49:56.521Z,24.30
2017-08-27T14:52:24.934Z,24.60
2017-08-27T14:54:53.318Z,24.20
2017-08-27T14:57:21.740Z,24.30
2017-08-27T14:59:50.906Z,24.60
2017-08-27T15:02:19.297Z,24.50
2017-08-27T15:04:47.711Z,24.90
2017-08-27T15:07:16.127Z,24.90
2017-08-27T15:09:44.555Z,25.10
2017-08-27T15:12:12.937Z,25.20
2017-08-27T15:14:41.327Z,24.50
2017-08-27T15:17:09.755Z,24.20
2017-08-27T15:19:38.278Z,24.10
2017-08-27T15:22:06.673Z,24.00
2017-08-27T15:24:35.052Z,23.70
2017-08-27T15:27:03.314Z,23.60
2017-08-27T15:29:31.718Z,23.70
2017-08-27T15:32:00.096Z,23.70
2017-08-27T15:34:28.497Z,23.80
2017-08-27T15:36:56.893Z,23.90
2017-08-27T15:39:25.285Z,24.00
2017-08-27T15:41:53.332Z,23.90
2017-08-27T15:44:21.527Z,23.70
2017-08-27T15:46:49.921Z,23.70
2017-08-27T15:49:18.297Z,23.70
2017-08-27T15:51:47.516Z,23.90
2017-08-27T15:54:15.949Z,24.00
2017-08-27T15:56:44.347Z,23.70
2017-08-27T15:59:12.745Z,23.80
2017-08-27T16:01:41.153Z,24.00
2017-08-27T16:04:09.630Z,23.80
2017-08-27T16:06:38.050Z,23.70
2017-08-27T16:09:06.787Z,23.80
2017-08-27T16:11:35.012Z,23.80
2017-08-27T16:14:03.398Z,23.90
2017-08-27T16:16:31.789Z,23.70
2017-08-27T16:19:00.180Z,23.60
2017-08-27T16:21:29.104Z,23.70
2017-08-27T16:23:57.320Z,23.60
2017-08-27T16:26:25.537Z,23.80
2017-08-27T16:28:53.740Z,23.80
2017-08-27T16:31:21.970Z,23.90
2017-08-27T16:33:50.162Z,24.00
2017-08-27T16:36:18.369Z,24.10
2017-08-27T16:38:46.562Z,23.90
2017-08-27T16:41:14.765Z,23.70
2017-08-27T16:43:42.973Z,23.70
2017-08-27T16:46:11.167Z,23.60
2017-08-27T16:48:39.381Z,23.40
2017-08-27T16:51:07.592Z,23.40
2017-08-27T16:53:35.993Z,23.40
2017-08-27T16:56:04.381Z,23.40
2017-08-27T16:58:32.766Z,23.50
2017-08-27T17:01:01.179Z,23.60
2017-08-27T17:03:29.576Z,23.60
2017-08-27T17:05:57.774Z,23.50
2017-08-27T17:08:26.172Z,23.50
2017-08-27T17:10:54.420Z,23.30
2017-08-27T17:13:22.633Z,23.10
2017-08-27T17:15:51.591Z,23.00
2017-08-27T17:18:19.782Z,23.00
2017-08-27T17:20:47.990Z,23.00
2017-08-27T17:23:16.174Z,22.80
2017-08-27T17:25:44.385Z,22.90
2017-08-27T17:28:12.581Z,22.90
2017-08-27T17:30:40.777Z,22.90
2017-08-27T17:33:08.983Z,22.90
2017-08-27T17:35:37.170Z,23.00
2017-08-27T17:38:05.387Z,23.10
2017-08-27T17:40:33.587Z,22.90
2017-08-27T17:43:01.785Z,22.80
2017-08-27T17:45:29.997Z,22.70
2017-08-27T17:47:58.214Z,22.70
2017-08-27T17:50:26.421Z,22.70
2017-08-27T17:52:54.618Z,22.70
2017-08-27T17:55:23.582Z,22.50
2017-08-27T17:57:51.786Z,22.50
2017-08-27T18:00:19.974Z,22.40
2017-08-27T18:02:48.952Z,22.20
2017-08-27T18:05:17.146Z,22.20
2017-08-27T18:07:45.554Z,22.10
2017-08-27T18:10:13.752Z,22.10
2017-08-27T18:12:41.944Z,22.20
2017-08-27T18:15:10.160Z,22.20
2017-08-27T18:17:38.543Z,22.20
2017-08-27T18:20:06.951Z,22.20
2017-08-27T18:22:35.342Z,22.20
2017-08-27T18:25:03.725Z,22.00
2017-08-27T18:27:31.952Z,22.00
2017-08-27T18:30:00.428Z,22.00
2017-08-27T18:32:28.805Z,22.00
2017-08-27T18:34:57.018Z,21.90
2017-08-27T18:37:25.397Z,21.90
2017-08-27T18:39:53.790Z,21.90
2017-08-27T18:42:22.182Z,21.80
2017-08-27T18:44:50.684Z,21.70
2017-08-27T18:47:19.104Z,21.50
2017-08-27T18:49:47.492Z,21.40
2017-08-27T18:52:15.889Z,21.30
2017-08-27T18:54:44.297Z,21.20
2017-08-27T18:57:12.681Z,21.10
2017-08-27T18:59:41.074Z,20.90
2017-08-27T19:02:09.299Z,20.90
2017-08-27T19:04:37.684Z,20.80
2017-08-27T19:07:06.085Z,20.70
2017-08-27T19:09:34.475Z,20.50
2017-08-27T19:12:02.874Z,20.50
2017-08-27T19:14:31.282Z,20.30
2017-08-27T19:16:59.728Z,20.20
2017-08-27T19:19:27.921Z,20.20
2017-08-27T19:21:56.313Z,20.30
2017-08-27T19:24:24.716Z,20.40
2017-08-27T19:26:53.100Z,20.30
2017-08-27T19:29:21.483Z,20.20
2017-08-27T19:31:49.892Z,20.20
2017-08-27T19:34:18.340Z,20.20
2017-08-27T19:36:46.743Z,20.20
2017-08-27T19:39:15.394Z,20.20
2017-08-27T19:41:43.828Z,20.10
2017-08-27T19:44:12.227Z,20.00
2017-08-27T19:46:41.408Z,19.60
2017-08-27T19:49:09.836Z,19.60
2017-08-27T19:51:38.254Z,19.60
2017-08-27T19:54:06.677Z,19.50
2017-08-27T19:56:35.065Z,19.50
2017-08-27T19:59:03.481Z,19.50
2017-08-27T20:01:31.742Z,19.40
2017-08-27T20:04:00.130Z,19.40
2017-08-27T20:06:28.541Z,19.30
2017-08-27T20:08:56.957Z,19.20
2017-08-27T20:11:25.335Z,19.10
2017-08-27T20:13:53.729Z,19.10
2017-08-27T20:16:22.113Z,18.90
2017-08-27T20:18:50.516Z,18.80
2017-08-27T20:21:18.910Z,18.90
2017-08-27T20:23:47.300Z,19.00
2017-08-27T20:26:15.695Z,19.00
2017-08-27T20:28:44.074Z,19.00
2017-08-27T20:31:12.505Z,18.90
2017-08-27T20:33:40.895Z,18.90
2017-08-27T20:36:09.291Z,18.80
2017-08-27T20:38:37.681Z,18.70
2017-08-27T20:41:06.067Z,18.60
2017-08-27T20:43:34.486Z,18.40
2017-08-27T20:46:02.896Z,18.40
2017-08-27T20:48:31.285Z,18.40
2017-08-27T20:50:59.678Z,18.40
2017-08-27T20:53:28.097Z,18.40
2017-08-27T20:55:56.562Z,18.40
2017-08-27T20:58:24.945Z,18.40
2017-08-27T21:00:53.353Z,18.20
2017-08-27T21:03:21.742Z,18.10
2017-08-27T21:05:50.119Z,18.10
2017-08-27T21:08:18.513Z,18.10
2017-08-27T21:10:46.908Z,18.10
2017-08-27T21:13:15.289Z,18.10
2017-08-27T21:15:43.792Z,18.10
2017-08-27T21:18:12.186Z,18.00
2017-08-27T21:20:40.594Z,18.00
2017-08-27T21:23:08.977Z,18.00
2017-08-27T21:25:37.369Z,18.00
2017-08-27T21:28:05.779Z,18.00
2017-08-27T21:30:34.155Z,17.90
2017-08-27T21:33:02.557Z,17.90
2017-08-27T21:35:30.958Z,17.90
2017-08-27T21:37:59.329Z,17.90
2017-08-27T21:40:27.736Z,18.00
2017-08-27T21:42:56.121Z,17.90
2017-08-27T21:45:25.285Z,17.80
2017-08-27T21:47:53.671Z,17.70
2017-08-27T21:50:22.054Z,17.80
2017-08-27T21:52:50.445Z,17.80
2017-08-27T21:55:18.831Z,17.90
2017-08-27T21:57:47.251Z,18.00
2017-08-27T22:00:14.965Z,18.00
2017-08-27T22:02:43.356Z,18.00
2017-08-27T22:05:11.749Z,18.00
2017-08-27T22:07:40.133Z,17.90
2017-08-27T22:10:08.528Z,17.90
2017-08-27T22:12:36.912Z,17.90
2017-08-27T22:15:05.111Z,17.90
2017-08-27T22:17:33.503Z,17.90
2017-08-27T22:20:01.889Z,17.90
2017-08-27T22:22:30.553Z,17.80
2017-08-27T22:24:58.920Z,17.80
2017-08-27T22:27:27.296Z,17.80
2017-08-27T22:29:55.689Z,17.70
2017-08-27T22:32:24.073Z,17.70
2017-08-27T22:34:52.144Z,17.70
2017-08-27T22:37:20.345Z,17.70
2017-08-27T22:39:48.725Z,17.80
2017-08-27T22:42:17.121Z,17.80
2017-08-27T22:44:45.504Z,17.90
2017-08-27T22:47:13.905Z,17.90
2017-08-27T22:49:42.285Z,17.90
2017-08-27T22:52:10.673Z,17.80
2017-08-27T22:54:39.073Z,17.70
2017-08-27T22:57:07.456Z,17.60
2017-08-27T22:59:35.661Z,17.50
2017-08-27T23:02:03.857Z,17.50
2017-08-27T23:04:32.236Z,17.60
2017-08-27T23:07:00.645Z,17.70
2017-08-27T23:09:29.035Z,17.80
2017-08-27T23:11:57.606Z,17.80
2017-08-27T23:14:25.985Z,17.70
2017-08-27T23:16:54.373Z,17.60
2017-08-27T23:19:22.775Z,17.60
2017-08-27T23:21:51.171Z,17.50
2017-08-27T23:24:19.573Z,17.40
2017-08-27T23:26:47.963Z,17.40
2017-08-27T23:29:16.337Z,17.30
2017-08-27T23:31:44.738Z,17.30
2017-08-27T23:34:12.925Z,17.30
2017-08-27T23:36:41.334Z,17.30
2017-08-27T23:39:09.721Z,17.40
2017-08-27T23:41:38.135Z,17.40
2017-08-27T23:44:06.536Z,17.50
2017-08-27T23:46:34.919Z,17.70
2017-08-27T23:49:03.378Z,17.80
2017-08-27T23:51:31.753Z,17.80
2017-08-27T23:54:00.133Z,17.80
2017-08-27T23:56:29.301Z,17.60
2017-08-27T23:58:57.681Z,17.60
